Time;durP1;ratioP1;P1;durP2;ratioP2;P2;SDS_P1;SDS_P2;PMS_P1;PMS_P2;Temp;Humidity;BMP_temperature;BMP_pressure;BME280_temperature;BME280_humidity;BME280_pressure;Samples;Min_cycle;Max_cycle;Signal;HPM_P1;HPM_P2
2022/08/24 00:02:04;;;;;;;15.45;12.80;;;;;;;33.05;38.97;101801.81;5054535;28;20025;-72
2022/08/24 00:04:30;;;;;;;16.27;12.90;;;;;;;32.80;39.73;101798.63;5071739;28;20031;-72
2022/08/24 00:06:55;;;;;;;17.38;13.40;;;;;;;32.68;39.62;101799.72;5054658;28;20024;-72
2022/08/24 00:09:21;;;;;;;16.83;12.77;;;;;;;32.78;39.49;101795.19;5061704;28;20027;-72
2022/08/24 00:11:46;;;;;;;16.02;12.48;;;;;;;33.00;39.10;101804.94;5073865;28;20420;-72
2022/08/24 00:14:12;;;;;;;17.42;13.32;;;;;;;33.04;38.79;101800.94;5074083;28;20391;-71
2022/08/24 00:16:38;;;;;;;21.58;13.90;;;;;;;33.25;38.61;101800.88;5074325;28;20028;-72
2022/08/24 00:19:03;;;;;;;16.48;13.70;;;;;;;33.01;38.90;101801.22;5066649;28;20016;-72
2022/08/24 00:21:29;;;;;;;15.13;13.30;;;;;;;32.80;39.48;101799.47;5054263;28;20357;-73
2022/08/24 00:23:54;;;;;;;18.17;13.75;;;;;;;33.05;39.17;101799.97;5071783;28;20028;-72
2022/08/24 00:26:19;;;;;;;16.60;13.30;;;;;;;33.17;38.35;101805.25;5073333;28;20052;-72
2022/08/24 00:28:45;;;;;;;15.98;13.35;;;;;;;33.07;38.66;101794.41;5071050;28;20712;-72
2022/08/24 00:31:11;;;;;;;18.10;14.25;;;;;;;32.96;38.71;101798.97;5071879;28;20029;-72
2022/08/24 00:33:38;;;;;;;16.70;13.05;;;;;;;32.79;39.20;101807.75;5053102;28;20405;-73
2022/08/24 00:36:04;;;;;;;15.43;12.50;;;;;;;32.81;39.01;101801.19;5053910;28;20198;-72
2022/08/24 00:38:30;;;;;;;17.42;13.52;;;;;;;32.74;39.23;101810.88;5068643;28;20034;-72
2022/08/24 00:40:56;;;;;;;20.38;15.25;;;;;;;32.56;39.65;101807.06;5055278;28;20387;-72
2022/08/24 00:43:25;;;;;;;17.73;15.10;;;;;;;32.54;39.66;101809.91;5073687;28;20052;-72
2022/08/24 00:46:08;;;;;;;18.13;14.80;;;;;;;32.52;39.98;101806.50;5073144;28;20040;-72
2022/08/24 00:48:38;;;;;;;17.77;14.88;;;;;;;32.85;38.83;101807.22;5073959;28;20031;-72
2022/08/24 00:51:13;;;;;;;21.27;16.10;;;;;;;32.46;39.58;101807.03;5090086;28;20023;-72
2022/08/24 00:53:44;;;;;;;18.77;14.63;;;;;;;32.57;39.40;101806.91;5073221;28;20058;-72
2022/08/24 00:56:16;;;;;;;17.55;13.88;;;;;;;32.51;39.76;101804.78;5074011;28;20032;-72
2022/08/24 00:58:46;;;;;;;16.90;13.35;;;;;;;32.42;39.52;101808.28;5070526;28;20059;-72
2022/08/24 01:01:13;;;;;;;17.02;14.27;;;;;;;32.60;39.16;101809.38;5052949;28;20032;-72
2022/08/24 01:03:40;;;;;;;15.68;12.98;;;;;;;32.69;38.90;101809.53;5053627;28;20017;-72
2022/08/24 01:06:06;;;;;;;19.45;15.05;;;;;;;32.40;39.65;101807.59;5084827;28;20024;-72
2022/08/24 01:08:31;;;;;;;20.92;15.57;;;;;;;32.40;39.64;101794.91;5072809;28;20109;-72
2022/08/24 01:11:04;;;;;;;19.50;15.50;;;;;;;32.61;39.33;101800.25;5072608;28;20198;-72
2022/08/24 01:13:31;;;;;;;19.42;15.40;;;;;;;33.04;38.68;101794.69;5091645;28;20537;-72
2022/08/24 01:16:00;;;;;;;20.33;16.40;;;;;;;32.53;39.57;101791.94;5073080;28;20036;-72
2022/08/24 01:21:32;;;;;;;22.23;16.85;;;;;;;32.21;40.39;101787.56;5090113;28;20109;-72
2022/08/24 01:24:01;;;;;;;22.95;17.45;;;;;;;32.26;39.99;101795.25;5077687;28;20376;-72
2022/08/24 01:26:34;;;;;;;22.40;17.17;;;;;;;32.21;40.21;101790.25;5059401;28;20119;-72
2022/08/24 01:29:01;;;;;;;;;;;;;;;32.54;39.46;101785.56;5057223;28;20167;-72
2022/08/24 01:31:27;;;;;;;27.45;19.52;;;;;;;31.92;40.60;101793.63;5074236;28;19934;-72
2022/08/24 01:33:53;;;;;;;27.02;19.00;;;;;;;31.92;41.28;101799.03;5066629;28;20040;-72
2022/08/24 01:36:32;;;;;;;24.10;18.70;;;;;;;32.43;39.78;101791.91;5056587;28;20075;-72
2022/08/24 01:39:04;;;;;;;25.40;18.48;;;;;;;32.30;40.23;101792.16;5056907;28;20100;-72
2022/08/24 01:41:30;;;;;;;23.48;17.55;;;;;;;32.77;38.95;101793.50;5058788;28;20106;-72
2022/08/24 01:43:58;;;;;;;24.00;17.40;;;;;;;32.70;39.21;101808.56;5056156;28;20080;-72
2022/08/24 01:46:23;;;;;;;23.30;18.02;;;;;;;32.34;39.75;101798.13;5057287;28;20476;-72
2022/08/24 01:48:49;;;;;;;28.50;19.92;;;;;;;32.14;40.20;101807.97;5055705;28;20165;-71
2022/08/24 01:51:14;;;;;;;21.88;16.60;;;;;;;32.32;39.98;101810.09;5073787;28;20024;-72
2022/08/24 01:53:39;;;;;;;22.25;16.65;;;;;;;32.23;40.00;101815.31;5056899;28;20503;-72
2022/08/24 01:56:05;;;;;;;21.30;16.48;;;;;;;32.47;39.51;101809.59;5064473;28;20447;-72
2022/08/24 01:58:31;;;;;;;21.88;15.55;;;;;;;32.63;38.86;101814.50;5056983;28;20066;-72
2022/08/24 02:00:57;;;;;;;21.42;15.60;;;;;;;32.49;39.64;101812.16;5056969;28;20032;-72
2022/08/24 02:03:23;;;;;;;22.98;17.02;;;;;;;32.49;39.25;101809.44;5073903;28;20461;-72
2022/08/24 02:05:49;;;;;;;20.13;15.65;;;;;;;32.62;39.05;101811.94;5056900;28;20035;-72
2022/08/24 02:08:14;;;;;;;21.65;15.98;;;;;;;32.56;39.26;101807.06;5056048;28;20115;-72
2022/08/24 02:10:39;;;;;;;19.23;15.68;;;;;;;32.78;39.31;101808.72;5056148;28;20063;-72
2022/08/24 02:13:05;;;;;;;20.75;16.63;;;;;;;32.46;39.43;101812.44;5056658;28;20407;-72
2022/08/24 02:15:36;;;;;;;22.67;15.77;;;;;;;32.33;39.46;101812.66;5056606;28;20387;-72
2022/08/24 02:18:03;;;;;;;19.03;14.93;;;;;;;32.52;39.32;101809.19;5082582;28;20124;-72
2022/08/24 02:20:29;;;;;;;21.40;16.20;;;;;;;32.47;39.18;101808.75;5074596;28;20100;-72
2022/08/24 02:22:55;;;;;;;21.45;16.02;;;;;;;32.38;39.38;101814.97;5074504;28;20407;-72
2022/08/24 02:25:22;;;;;;;19.73;16.08;;;;;;;32.25;39.30;101810.63;5057941;28;20111;-72
2022/08/24 02:27:48;;;;;;;18.92;15.07;;;;;;;32.35;39.14;101809.81;5056268;28;20421;-72
2022/08/24 02:30:14;;;;;;;18.83;15.18;;;;;;;32.72;39.01;101812.00;5073045;28;20038;-72
2022/08/24 02:32:40;;;;;;;21.00;15.63;;;;;;;32.57;38.94;101804.22;5089376;28;20028;-72
2022/08/24 02:35:06;;;;;;;21.27;15.75;;;;;;;32.57;39.12;101798.81;5075297;28;20438;-72
2022/08/24 02:37:31;;;;;;;21.50;16.58;;;;;;;32.39;39.39;101808.56;5076280;28;20111;-71
2022/08/24 02:39:57;;;;;;;21.70;15.63;;;;;;;32.38;39.44;101804.97;5075030;28;20028;-72
2022/08/24 02:42:22;;;;;;;18.17;14.95;;;;;;;32.38;39.18;101809.56;5076325;28;20527;-71
2022/08/24 02:44:47;;;;;;;22.55;15.85;;;;;;;32.01;40.02;101818.97;5067414;28;20047;-72
2022/08/24 02:47:13;;;;;;;20.65;15.80;;;;;;;32.19;39.74;101822.00;5080483;28;20028;-72
2022/08/24 02:49:38;;;;;;;19.75;14.80;;;;;;;31.89;40.07;101826.31;5075715;28;20146;-72
2022/08/24 02:52:04;;;;;;;18.38;13.82;;;;;;;32.27;39.47;101822.19;5093491;28;20024;-72
2022/08/24 02:54:29;;;;;;;16.42;14.35;;;;;;;32.05;39.82;101822.28;5094090;28;20028;-72
2022/08/24 02:56:55;;;;;;;18.60;14.48;;;;;;;32.40;39.35;101821.09;5094104;28;20028;-71
2022/08/24 02:59:22;;;;;;;18.40;13.07;;;;;;;32.31;39.34;101814.63;5074189;28;20023;-72
2022/08/24 03:01:47;;;;;;;16.20;13.10;;;;;;;32.51;38.90;101815.59;5055204;28;20101;-72
2022/08/24 03:04:13;;;;;;;15.70;11.88;;;;;;;32.35;39.09;101818.78;5073796;28;20024;-72
2022/08/24 03:06:39;;;;;;;15.50;12.07;;;;;;;32.21;39.44;101820.00;5054989;28;20381;-72
2022/08/24 03:09:05;;;;;;;18.02;13.02;;;;;;;32.25;39.26;101813.34;5057551;28;20111;-72
2022/08/24 03:11:31;;;;;;;16.33;12.65;;;;;;;32.46;38.87;101813.28;5093722;28;20031;-72
2022/08/24 03:13:57;;;;;;;20.17;12.27;;;;;;;32.07;39.64;101815.75;5073246;28;20028;-72
2022/08/24 03:16:23;;;;;;;15.35;11.35;;;;;;;32.18;39.46;101814.88;5079467;28;20465;-72
2022/08/24 03:18:48;;;;;;;16.77;11.50;;;;;;;32.05;39.62;101820.44;5055471;28;20021;-71
2022/08/24 03:21:15;;;;;;;284.50;38.28;;;;;;;32.12;39.90;101820.75;5072512;28;20031;-72
2022/08/24 03:23:40;;;;;;;14.50;10.60;;;;;;;32.27;39.51;101822.19;5073344;28;20028;-72
2022/08/24 03:26:05;;;;;;;15.00;11.50;;;;;;;32.19;39.57;101821.13;5072765;28;20025;-72
2022/08/24 03:28:31;;;;;;;15.30;10.80;;;;;;;32.22;39.67;101816.31;5068523;28;20080;-72
2022/08/24 03:30:56;;;;;;;15.50;11.43;;;;;;;32.13;39.62;101817.06;5075336;28;20028;-72
2022/08/24 03:33:22;;;;;;;12.05;10.40;;;;;;;32.13;39.57;101815.22;5075423;28;20490;-72
2022/08/24 03:35:47;;;;;;;14.15;11.07;;;;;;;31.91;40.15;101818.91;5073329;28;20487;-72
2022/08/24 03:38:13;;;;;;;12.52;9.70;;;;;;;32.12;39.78;101815.34;5093254;28;20175;-72
2022/08/24 03:40:40;;;;;;;16.25;10.93;;;;;;;31.81;40.09;101809.91;5073067;28;20028;-72
2022/08/24 03:43:06;;;;;;;15.60;10.65;;;;;;;31.74;39.99;101806.00;5090979;28;20028;-71
2022/08/24 03:45:31;;;;;;;13.93;10.18;;;;;;;32.29;39.28;101809.38;5050992;28;20123;-72
2022/08/24 03:47:57;;;;;;;12.20;9.98;;;;;;;32.16;39.24;101815.97;5033940;28;20075;-72
2022/08/24 03:50:23;;;;;;;15.15;10.25;;;;;;;31.85;40.11;101813.19;5050713;28;20116;-72
2022/08/24 03:52:50;;;;;;;10.73;8.27;;;;;;;31.84;40.11;101812.34;5034840;28;20473;-72
2022/08/24 03:55:15;;;;;;;14.63;10.00;;;;;;;31.84;40.21;101808.78;5034181;28;20028;-72
2022/08/24 03:57:41;;;;;;;11.48;8.60;;;;;;;31.85;40.08;101814.06;5052000;28;20029;-72
2022/08/24 04:00:09;;;;;;;10.05;7.97;;;;;;;31.62;40.49;101821.41;5052546;28;20032;-72
2022/08/24 04:02:35;;;;;;;10.40;8.35;;;;;;;31.39;40.93;101817.91;5033738;28;20029;-72
2022/08/24 04:05:00;;;;;;;8.75;7.35;;;;;;;31.66;40.33;101813.91;5034725;28;20070;-72
2022/08/24 04:07:26;;;;;;;11.63;7.93;;;;;;;31.80;40.01;101816.28;5034519;28;20097;-72
2022/08/24 04:09:52;;;;;;;10.13;7.53;;;;;;;31.78;39.97;101819.13;5052856;28;20111;-72
2022/08/24 04:12:17;;;;;;;11.10;8.35;;;;;;;31.99;39.66;101817.44;5072385;28;20036;-72
2022/08/24 04:14:43;;;;;;;13.55;7.88;;;;;;;31.78;40.41;101826.38;5054538;28;20027;-72
2022/08/24 04:17:09;;;;;;;12.65;8.32;;;;;;;31.69;40.16;101821.75;5052541;28;20085;-72
2022/08/24 04:19:34;;;;;;;8.57;6.88;;;;;;;31.64;40.26;101819.41;5054280;28;20373;-72
2022/08/24 04:22:00;;;;;;;8.90;7.00;;;;;;;31.67;40.58;101821.88;5071921;28;20031;-73
2022/08/24 04:24:25;;;;;;;8.50;6.60;;;;;;;31.70;40.03;101820.78;5052208;28;20185;-72
2022/08/24 04:26:51;;;;;;;10.52;7.43;;;;;;;31.66;39.93;101819.31;5043793;28;20438;-72
2022/08/24 04:29:18;;;;;;;10.48;7.18;;;;;;;31.68;40.00;101823.56;5034108;28;20044;-73
2022/08/24 04:31:44;;;;;;;8.48;6.03;;;;;;;31.62;40.24;101819.56;5033496;28;20491;-72
2022/08/24 04:34:12;;;;;;;9.02;7.38;;;;;;;31.71;40.04;101820.66;5034208;28;20029;-72
2022/08/24 04:36:43;;;;;;;8.20;6.53;;;;;;;31.95;39.70;101820.38;5046026;28;20047;-72
2022/08/24 04:39:09;;;;;;;8.65;6.38;;;;;;;31.63;40.29;101821.28;5053155;28;20032;-72
2022/08/24 04:41:35;;;;;;;8.63;6.93;;;;;;;31.37;40.70;101828.00;5053918;28;20437;-72
2022/08/24 04:44:02;;;;;;;12.07;7.07;;;;;;;31.52;40.46;101829.41;5062599;28;20044;-73
2022/08/24 04:46:28;;;;;;;7.90;6.70;;;;;;;31.82;39.97;101821.56;5086144;28;20113;-73
2022/08/24 04:48:54;;;;;;;12.48;6.95;;;;;;;31.80;39.55;101821.69;5053359;28;20076;-72
2022/08/24 04:51:20;;;;;;;10.93;6.03;;;;;;;31.89;39.74;101826.31;5053258;28;20028;-72
2022/08/24 04:53:47;;;;;;;11.65;6.53;;;;;;;31.73;40.31;101826.75;5052320;28;21025;-72
2022/08/24 04:56:15;;;;;;;11.73;6.63;;;;;;;31.52;40.23;101832.09;5053932;28;20025;-73
2022/08/24 04:58:41;;;;;;;10.98;7.32;;;;;;;31.78;39.94;101820.97;5070664;28;20020;-73
2022/08/24 05:01:14;;;;;;;13.10;6.57;;;;;;;31.55;40.38;101829.13;5071526;28;20046;-72
2022/08/24 05:03:40;;;;;;;7.88;6.22;;;;;;;31.36;41.08;101828.97;5058789;28;20027;-73
2022/08/24 05:06:05;;;;;;;9.50;6.82;;;;;;;31.58;40.60;101834.28;5072904;28;20074;-72
2022/08/24 05:08:31;;;;;;;7.70;6.47;;;;;;;31.71;40.44;101838.69;5091742;28;20034;-72
2022/08/24 05:10:56;;;;;;;6.72;5.80;;;;;;;31.53;40.60;101824.84;5070249;28;20036;-73
2022/08/24 05:13:21;;;;;;;9.57;6.38;;;;;;;32.03;39.68;101843.19;5052982;28;20435;-72
2022/08/24 05:15:47;;;;;;;7.30;5.88;;;;;;;31.99;40.00;101842.59;5081320;28;20483;-73
2022/08/24 05:18:14;;;;;;;7.55;5.97;;;;;;;31.93;40.18;101838.56;5090996;28;20020;-73
2022/08/24 05:20:41;;;;;;;12.57;6.30;;;;;;;31.95;40.32;101842.00;5070693;28;20388;-73
2022/08/24 05:23:07;;;;;;;12.68;6.43;;;;;;;31.86;40.60;101848.22;5081948;28;20027;-72
2022/08/24 05:25:33;;;;;;;7.68;6.45;;;;;;;31.88;40.48;101843.50;5091506;28;20031;-72
2022/08/24 05:27:59;;;;;;;8.07;6.15;;;;;;;31.88;40.97;101848.91;5072827;28;20023;-73
2022/08/24 05:30:24;;;;;;;7.90;6.13;;;;;;;32.01;40.50;101850.56;5072311;28;20058;-72
2022/08/24 05:32:50;;;;;;;9.07;5.90;;;;;;;31.96;40.69;101859.94;5089610;28;20055;-72
2022/08/24 05:35:15;;;;;;;8.20;6.30;;;;;;;32.03;40.87;101854.00;5072692;28;20059;-72
2022/08/24 05:37:42;;;;;;;9.27;7.00;;;;;;;32.32;40.47;101856.94;5073535;28;20031;-73
2022/08/24 05:40:11;;;;;;;8.52;6.25;;;;;;;32.52;40.02;101849.78;5091330;28;20153;-73
2022/08/24 05:42:37;;;;;;;8.77;6.75;;;;;;;33.01;39.47;101854.53;5060270;28;20024;-72
2022/08/24 05:45:04;;;;;;;9.52;7.30;;;;;;;32.85;39.76;101850.50;5073762;28;20051;-73
2022/08/24 05:47:29;;;;;;;11.00;7.38;;;;;;;32.85;39.43;101850.50;5053323;28;20024;-73
2022/08/24 05:49:55;;;;;;;16.63;10.30;;;;;;;33.18;38.86;101851.16;5052478;28;20051;-73
2022/08/24 05:52:21;;;;;;;13.80;9.43;;;;;;;32.97;39.22;101854.81;5071007;28;20028;-73
2022/08/24 05:54:55;;;;;;;13.63;8.85;;;;;;;33.17;38.19;101854.00;5035230;28;20025;-72
2022/08/24 05:57:22;;;;;;;13.75;10.77;;;;;;;32.98;39.03;101856.50;5034628;28;20033;-72
2022/08/24 05:59:48;;;;;;;17.17;11.82;;;;;;;32.81;39.45;101857.19;5050878;28;20031;-73
2022/08/24 06:02:14;;;;;;;16.30;12.52;;;;;;;32.87;39.23;101850.38;5038796;28;20040;-74
2022/08/24 06:04:39;;;;;;;19.67;12.63;;;;;;;32.74;39.45;101858.72;5035324;28;20500;-74
2022/08/24 06:07:08;;;;;;;21.55;13.00;;;;;;;32.61;39.77;101854.34;5037873;28;20032;-74
2022/08/24 06:09:34;;;;;;;21.02;14.43;;;;;;;32.59;39.47;101856.34;5037038;28;20166;-74
2022/08/24 06:11:59;;;;;;;23.17;13.77;;;;;;;31.90;41.40;101857.78;5036784;28;20116;-74
2022/08/24 06:14:25;;;;;;;21.92;14.27;;;;;;;32.19;40.82;101857.16;5054699;28;20398;-74
2022/08/24 06:16:51;;;;;;;22.30;14.70;;;;;;;32.72;39.72;101866.13;5053892;28;20040;-74
2022/08/24 06:19:18;;;;;;;21.80;14.07;;;;;;;32.92;39.23;101858.91;5036579;28;20104;-74
2022/08/24 06:21:46;;;;;;;17.67;13.20;;;;;;;32.86;39.57;101865.72;5054339;28;20107;-74
2022/08/24 06:24:14;;;;;;;22.35;14.38;;;;;;;32.49;40.86;101860.84;5038834;28;20404;-74
2022/08/24 06:29:25;;;;;;;20.95;14.25;;;;;;;32.89;39.99;101868.19;5060855;28;20040;-74
2022/08/24 06:31:51;;;;;;;24.08;15.43;;;;;;;32.95;39.70;101867.63;5041004;28;20025;-74
2022/08/24 06:34:18;;;;;;;24.40;15.80;;;;;;;32.41;41.46;101871.47;5045147;28;20290;-74
2022/08/24 06:36:44;;;;;;;26.40;16.00;;;;;;;32.77;40.51;101874.69;5056382;28;20086;-73
2022/08/24 06:39:09;;;;;;;22.23;14.82;;;;;;;32.77;40.48;101870.13;5047568;28;20365;-73
2022/08/24 06:41:36;;;;;;;23.50;14.63;;;;;;;32.85;40.26;101871.28;5038887;28;20031;-72
2022/08/24 06:44:02;;;;;;;21.55;15.63;;;;;;;31.89;42.25;101869.56;5063875;28;20048;-73
2022/08/24 06:46:27;;;;;;;21.88;15.50;;;;;;;32.80;40.87;101869.00;5075447;28;20081;-73
2022/08/24 06:48:53;;;;;;;24.63;16.08;;;;;;;32.43;41.67;101872.22;5066725;28;20029;-74
2022/08/24 06:51:24;;;;;;;24.25;15.85;;;;;;;32.33;42.01;101871.28;5073189;28;20029;-72
2022/08/24 06:53:50;;;;;;;25.10;15.15;;;;;;;33.30;40.30;101871.75;5064781;28;20110;-72
2022/08/24 06:56:17;;;;;;;21.27;14.38;;;;;;;33.04;40.63;101870.50;5066048;28;20051;-73
2022/08/24 06:58:43;;;;;;;21.02;14.73;;;;;;;33.20;40.41;101872.69;5066010;28;20021;-72
2022/08/24 07:01:08;;;;;;;24.25;16.60;;;;;;;33.03;40.86;101874.19;5055443;28;20025;-73
2022/08/24 07:03:34;;;;;;;18.88;14.15;;;;;;;33.25;40.70;101876.72;5055673;28;20489;-72
2022/08/24 07:06:01;;;;;;;18.40;13.25;;;;;;;33.68;40.02;101879.19;5071382;28;20020;-73
2022/08/24 07:08:27;;;;;;;19.15;11.10;;;;;;;33.36;40.24;101874.88;5055538;28;20074;-72
2022/08/24 07:10:52;;;;;;;14.10;9.68;;;;;;;32.63;40.85;101879.44;5055676;28;20036;-73
2022/08/24 07:13:17;;;;;;;12.23;8.73;;;;;;;32.91;39.90;101882.44;5054808;28;20024;-73
2022/08/24 07:15:43;;;;;;;11.48;8.35;;;;;;;33.51;39.78;101880.75;5072784;28;20062;-72
2022/08/24 07:18:13;;;;;;;11.88;8.35;;;;;;;33.62;39.19;101889.59;5055311;28;20031;-73
2022/08/24 07:20:41;;;;;;;12.63;8.38;;;;;;;32.96;40.27;101884.72;5054659;28;20028;-73
2022/08/24 07:23:07;;;;;;;14.15;9.20;;;;;;;33.19;40.32;101885.34;5073390;28;20032;-73
2022/08/24 07:25:34;;;;;;;12.07;9.40;;;;;;;32.38;42.77;101893.41;5055045;28;20079;-73
2022/08/24 07:27:59;;;;;;;13.05;8.68;;;;;;;35.20;37.73;101884.66;5054217;28;20017;-73
2022/08/24 07:30:26;;;;;;;10.35;6.95;;;;;;;37.48;33.17;101890.16;5055288;28;20043;-73
2022/08/24 07:32:53;;;;;;;10.35;8.00;;;;;;;38.00;31.46;101894.47;5055164;28;20020;-73
2022/08/24 07:35:18;;;;;;;8.52;7.07;;;;;;;37.94;30.88;101898.75;5072438;28;20055;-73
2022/08/24 07:37:44;;;;;;;10.15;6.07;;;;;;;40.67;28.30;101890.69;5073172;28;20103;-73
2022/08/24 07:40:10;;;;;;;10.18;6.82;;;;;;;41.09;27.38;101890.19;5055230;28;20472;-73
2022/08/24 07:42:35;;;;;;;8.57;5.90;;;;;;;42.37;25.48;101893.06;5072193;28;20036;-73
2022/08/24 07:45:02;;;;;;;7.18;6.05;;;;;;;41.91;25.79;101899.03;5054908;28;20053;-73
2022/08/24 07:47:27;;;;;;;6.28;5.53;;;;;;;42.62;25.36;101896.16;5054439;28;20048;-73
2022/08/24 07:49:52;;;;;;;7.07;5.30;;;;;;;44.35;23.03;101900.31;5055066;28;20027;-73
2022/08/24 07:52:18;;;;;;;7.65;5.40;;;;;;;45.40;22.40;101901.13;5054863;28;20105;-73
2022/08/24 07:54:43;;;;;;;8.52;4.90;;;;;;;46.12;21.33;101902.69;5053912;28;20082;-73
2022/08/24 07:57:09;;;;;;;9.07;4.75;;;;;;;45.58;21.84;101900.38;5072743;28;20028;-73
2022/08/24 07:59:35;;;;;;;7.60;5.32;;;;;;;43.23;23.15;101916.53;5072792;28;20021;-73
2022/08/24 08:02:01;;;;;;;8.00;5.28;;;;;;;45.83;21.43;101907.81;5054044;28;20097;-73
2022/08/24 08:04:27;;;;;;;5.38;4.13;;;;;;;45.32;21.37;101913.25;5054673;28;20043;-73
2022/08/24 08:06:53;;;;;;;5.80;3.47;;;;;;;44.82;22.70;101915.84;5054457;28;20389;-73
2022/08/24 08:09:18;;;;;;;5.05;3.45;;;;;;;45.61;21.87;101913.72;5053656;28;20032;-73
2022/08/24 08:11:44;;;;;;;4.88;3.33;;;;;;;45.18;21.49;101908.91;5054550;28;20025;-73
2022/08/24 08:14:10;;;;;;;7.85;4.90;;;;;;;45.94;20.68;101917.31;5054518;28;20499;-73
2022/08/24 08:16:38;;;;;;;6.25;3.47;;;;;;;44.61;21.63;101915.03;5053964;28;20373;-73
2022/08/24 08:19:04;;;;;;;6.85;2.95;;;;;;;43.77;21.89;101922.13;5054437;28;20031;-73
2022/08/24 08:24:17;;;;;;;5.25;2.55;;;;;;;43.09;22.39;101923.03;5071922;28;20112;-73
2022/08/24 08:26:49;;;;;;;3.78;3.00;;;;;;;42.00;23.56;101925.28;5072489;28;20032;-73
2022/08/24 08:29:17;;;;;;;3.45;2.78;;;;;;;43.67;23.03;101926.13;5072201;28;20104;-73
2022/08/24 08:31:43;;;;;;;5.53;3.17;;;;;;;45.34;22.15;101924.94;5053362;28;20078;-73
2022/08/24 08:34:08;;;;;;;4.00;3.00;;;;;;;44.32;21.41;101928.28;5053895;28;20046;-73
2022/08/24 08:36:34;;;;;;;3.78;2.58;;;;;;;44.88;21.09;101926.84;5071984;28;20036;-73
2022/08/24 08:39:00;;;;;;;6.55;3.22;;;;;;;44.92;21.15;101927.25;5053355;28;20020;-73
2022/08/24 08:42:13;;;;;;;4.82;2.83;;;;;;;41.45;24.84;101927.72;5054001;28;20028;-73
2022/08/24 08:44:51;;;;;;;4.10;2.60;;;;;;;43.45;23.91;101932.88;5053083;28;20066;-73
2022/08/24 08:47:22;;;;;;;5.40;2.92;;;;;;;44.16;22.61;101934.19;5053966;28;20063;-75
2022/08/24 08:50:12;;;;;;;5.13;3.10;;;;;;;45.87;20.48;101928.41;5053694;28;20032;-72
2022/08/24 08:53:10;;;;;;;5.47;2.70;;;;;;;44.62;22.72;101936.03;5053187;28;20048;-73
2022/08/24 08:56:08;;;;;;;6.45;3.70;;;;;;;45.53;20.94;101938.84;5071860;28;20040;-72
2022/08/24 08:58:52;;;;;;;5.10;3.38;;;;;;;43.65;21.90;101933.78;5035456;28;20082;-72
2022/08/24 09:01:20;;;;;;;3.53;3.00;;;;;;;45.88;20.44;101935.63;5071788;28;20542;-72
2022/08/24 09:04:16;;;;;;;3.80;3.20;;;;;;;45.99;20.55;101926.59;5053704;28;20033;-72
2022/08/24 09:07:07;;;;;;;7.75;3.22;;;;;;;45.39;20.46;101933.38;5053017;28;20877;-72
2022/08/24 09:10:08;;;;;;;6.00;3.88;;;;;;;46.66;19.99;101941.66;5053518;28;20025;-72
2022/08/24 09:13:07;;;;;;;5.40;3.38;;;;;;;45.20;22.05;101931.59;5038658;28;20377;-73
2022/08/24 09:15:45;;;;;;;4.55;2.70;;;;;;;47.01;19.30;101933.56;5053624;28;20029;-72
2022/08/24 09:18:36;;;;;;;9.05;3.25;;;;;;;44.76;22.63;101938.78;5053391;28;20031;-73
2022/08/24 09:21:23;;;;;;;6.03;2.40;;;;;;;45.10;21.17;101945.03;5052886;28;20419;-72
2022/08/24 09:24:06;;;;;;;2.63;2.40;;;;;;;43.40;22.53;101947.22;5053549;28;20020;-72
2022/08/24 09:27:07;;;;;;;3.95;3.00;;;;;;;44.72;22.20;101939.22;5070844;28;20063;-73
2022/08/24 09:29:57;;;;;;;4.70;2.80;;;;;;;44.04;22.07;101943.13;5053463;28;20032;-73
2022/08/24 09:32:48;;;;;;;3.63;2.80;;;;;;;44.95;21.52;101937.84;5053327;28;20028;-72
2022/08/24 09:35:39;;;;;;;4.68;2.78;;;;;;;44.09;22.57;101939.72;5041915;28;20028;-73
2022/08/24 09:38:42;;;;;;;3.65;3.08;;;;;;;43.11;22.59;101940.19;5033483;28;20037;-73
2022/08/24 09:41:45;;;;;;;5.07;2.67;;;;;;;41.73;25.64;101941.50;5074600;28;20034;-72
2022/08/24 09:44:48;;;;;;;4.30;2.22;;;;;;;43.31;23.22;101935.59;5057038;28;20580;-73
2022/08/24 09:47:39;;;;;;;5.40;2.47;;;;;;;43.47;22.82;101939.03;5074776;28;20025;-73
2022/08/24 09:50:21;;;;;;;2.25;1.90;;;;;;;41.80;24.30;101942.44;5057324;28;20020;-72
2022/08/24 09:53:15;;;;;;;3.08;2.13;;;;;;;42.68;23.48;101936.56;5057216;28;20106;-72
2022/08/24 09:55:55;;;;;;;4.82;2.50;;;;;;;41.85;24.07;101936.34;5056491;28;20470;-72
2022/08/24 09:58:32;;;;;;;2.75;2.28;;;;;;;42.69;23.28;101934.66;5075108;28;20032;-72
2022/08/24 10:01:01;;;;;;;2.00;1.80;;;;;;;43.67;22.86;101942.66;5056854;28;20035;-72
2022/08/24 10:03:50;;;;;;;3.30;2.90;;;;;;;41.34;24.39;101932.66;5056260;28;20451;-73
2022/08/24 10:06:51;;;;;;;3.00;2.38;;;;;;;43.80;21.88;101943.72;5057046;28;20016;-73
2022/08/24 10:09:54;;;;;;;2.75;1.55;;;;;;;43.23;22.73;101927.53;5056142;28;20025;-72
2022/08/24 10:12:37;;;;;;;3.58;2.30;;;;;;;42.26;24.75;101924.66;5056498;28;20116;-72
2022/08/24 10:15:18;;;;;;;3.10;1.98;;;;;;;40.93;25.45;101919.50;5056843;28;20039;-71
2022/08/24 10:17:59;;;;;;;3.87;2.03;;;;;;;42.29;23.68;101912.44;5074832;28;20070;-72
2022/08/24 10:20:28;;;;;;;5.15;2.55;;;;;;;41.75;23.71;101920.19;5056784;28;20121;-72
2022/08/24 10:23:21;;;;;;;2.63;1.70;;;;;;;42.58;23.29;101916.84;5055754;28;20119;-72
2022/08/24 10:25:55;;;;;;;3.35;1.60;;;;;;;40.13;25.37;101912.81;5074635;28;20494;-72
2022/08/24 10:28:52;;;;;;;3.97;1.88;;;;;;;41.02;25.29;101915.59;5074596;28;20109;-72
2022/08/24 10:31:39;;;;;;;2.58;1.88;;;;;;;40.15;26.63;101922.56;5055569;28;20036;-72
2022/08/24 10:34:17;;;;;;;3.53;2.00;;;;;;;40.40;25.10;101914.09;5042625;28;20381;-72
2022/08/24 10:37:08;;;;;;;4.03;2.05;;;;;;;40.54;25.90;101917.91;5055647;28;20036;-72
2022/08/24 10:39:53;;;;;;;2.40;1.50;;;;;;;39.99;26.74;101926.25;5056236;28;20016;-72
2022/08/24 10:45:54;;;;;;;2.72;1.60;;;;;;;40.40;26.33;101915.97;5055259;28;20056;-72
2022/08/24 10:48:28;;;;;;;7.07;1.90;;;;;;;39.50;26.72;101918.41;5035724;28;20040;-72
2022/08/24 10:51:31;;;;;;;5.22;1.80;;;;;;;41.12;25.83;101911.72;5052208;28;20036;-72
2022/08/24 10:53:57;;;;;;;1.67;1.45;;;;;;;40.45;25.88;101910.78;5035897;28;20147;-73
2022/08/24 10:56:38;;;;;;;2.35;1.65;;;;;;;39.58;26.84;101910.16;5054039;28;20029;-73
2022/08/24 10:59:15;;;;;;;2.30;1.38;;;;;;;39.95;26.05;101911.25;5053326;28;20063;-72
2022/08/24 11:01:59;;;;;;;4.13;1.70;;;;;;;41.33;24.91;101903.53;5036068;28;20029;-73
2022/08/24 11:04:28;;;;;;;3.05;1.73;;;;;;;41.31;24.21;101900.09;5051819;28;20366;-73
2022/08/24 11:07:03;;;;;;;2.65;1.75;;;;;;;41.06;24.61;101901.53;5035867;28;20025;-72
2022/08/24 11:09:47;;;;;;;3.05;2.55;;;;;;;39.95;26.66;101900.28;5035653;28;20091;-72
2022/08/24 11:12:20;;;;;;;3.88;2.45;;;;;;;42.16;24.29;101891.22;5035136;28;20033;-73
2022/08/24 11:14:47;;;;;;;6.43;1.88;;;;;;;41.06;23.75;101901.53;5053655;28;20033;-73
2022/08/24 11:17:24;;;;;;;2.83;1.95;;;;;;;42.84;22.97;101890.56;5053470;28;20024;-73
2022/08/24 11:19:50;;;;;;;5.20;2.10;;;;;;;42.37;22.51;101895.81;5034798;28;20021;-73
2022/08/24 11:22:35;;;;;;;3.55;1.80;;;;;;;41.96;23.24;101900.16;5053509;28;20028;-73
2022/08/24 11:25:18;;;;;;;3.22;1.77;;;;;;;43.21;21.81;101894.75;5053468;28;20431;-72
2022/08/24 11:27:47;;;;;;;1.70;1.33;;;;;;;42.11;21.79;101888.22;5034806;28;20020;-72
2022/08/24 11:30:18;;;;;;;1.35;1.25;;;;;;;42.08;22.54;101894.94;5035165;28;20037;-73
2022/08/24 11:33:00;;;;;;;5.20;1.70;;;;;;;41.89;22.21;101899.22;5034521;28;20021;-72
2022/08/24 11:35:32;;;;;;;1.35;1.25;;;;;;;42.55;21.67;101889.75;5035424;28;20496;-72
2022/08/24 11:38:15;;;;;;;1.83;1.20;;;;;;;40.33;23.88;101892.06;5035321;28;20044;-73
2022/08/24 11:40:49;;;;;;;3.20;1.33;;;;;;;42.40;21.64;101886.31;5034508;28;20116;-73
2022/08/24 11:43:30;;;;;;;2.85;1.90;;;;;;;42.81;21.82;101890.97;5052635;28;20025;-73
2022/08/24 11:46:10;;;;;;;3.55;1.30;;;;;;;43.02;21.33;101879.84;5034955;28;20349;-73